Terminal Aerodrome Forecast
Issued by NWS

Current Version | Previous Version | Text Only | Print | Product List | Glossary On
Versions: 1 2 3 4 5 6 7 8 9 10 11 12 13 14 15 16 17 18 19 20 21 22 23 24 25 26 27 28 29 30 31 32 33 34 35 36 37 38 39 40 41 42 43 44 45 46 47 48
000
FTUS43 KMKX 311140
TAFENW
TAF
KENW 311140Z 3112/0112 23007KT P6SM BKN040
     FM311400 23010KT P6SM SCT040 BKN250
     FM312200 30006KT P6SM SCT100 BKN250
     FM010100 36006KT P6SM OVC050
     FM010300 03006KT 6SM -SN OVC015
     FM010400 04007KT 2SM -SN OVC008
     FM010700 05012KT 1SM -SN BLSN OVC008
     FM011100 05014G22KT 2SM -SN BLSN OVC008=

USA.gov is the U.S. government's official web portal to all federal, state and local government web resources and services.